C.kormakitis, Cyprus
Current Conditions -  °F | °C
As of 1:50 PM on Monday 20 Oct 2014 (Local Time) from LCEN Reporting Station
Clear Clear  
Wind Chill: 73°   Ceiling: Unl
Heat Index: 73°   Visibility: 6mi
Dew Point: 27°   Wind: 8mph
Humidity: 18%   Direction: 330°NNW
Pressure: 29.88"   Gusts: NA
Location:  35.35°N, 32.95°E
Report Text: LCEN 201050Z 33007KT 240V010 CAVOK 23/M03 Q1012 NOSIG
Loading
Personal Weather Stations






























Interactive Weather Map
Tropical Storm Tracking
New forecast layout! Learn more

10-Day Weather Forecast

Advertisements
Track Severe Weather on mobile